CheckWX is a tool to help pilots better visualize weather data.  It is not intended as a substitute for an official pre-flight weather briefing.

00:41:35 UTC

KAIA METAR
Alliance Municipal Airport
Alliance, Nebraska, USA
Current

49 mins ago

KAIA 262353Z AUTO 20010KT 10SM CLR 18/M04 A2997 RMK AO2 SLP145 T01781039 10217 20167 56013
Observed
Mar-26 @ 23:53 UTC
Wind
  • 200° at 10 KTS
Visibility
10 SM
Flight Rules
VFR
Cloud Levels
  • Clear skies
Temperature
18°C / 64°F
Dewpoint
-4°C / 25°F
Humidity
22%
Altimeter
29.97" Hg
Pressure
1014.5 hPa
Previous

2 hours ago

KAIA 262253Z AUTO 19012KT 10SM CLR 19/M04 A2998 RMK AO2 SLP145 T01941044
Observed
Mar-26 @ 22:53 UTC
Wind
  • 190° at 12 KTS
Visibility
10 SM
Flight Rules
VFR
Cloud Levels
  • Clear skies
Temperature
19°C / 66°F
Dewpoint
-4°C / 25°F
Humidity
21%
Altimeter
29.98" Hg
Pressure
1014.5 hPa
Previous

3 hours ago

KAIA 262153Z AUTO 19016G29KT 10SM CLR 21/M06 A2999 RMK AO2 PK WND 18029/2150 SLP149 T02061056
Observed
Mar-26 @ 21:53 UTC
Wind
  • 190° at 16 KTS
  • Gusting to 29 KTS
Visibility
10 SM
Flight Rules
VFR
Cloud Levels
  • Clear skies
Temperature
21°C / 70°F
Dewpoint
-6°C / 21°F
Humidity
16%
Altimeter
29.99" Hg
Pressure
1014.9 hPa